Bowling Green, Illinois
Current Conditions -  °F | °C
As of 2:35 AM on Monday 24 Nov 2014 (Local Time) from K1H2 Reporting Station
NA  
Wind Chill: 55°   Ceiling: NA
Heat Index: 55°   Visibility: NA
Dew Point: 52°   Wind: 8mph
Humidity: 89%   Direction: 170°S
Pressure: 29.18"   Gusts: NA
Location:  39.2184°N, 88.9038°W
Report Text: K1H2 240835Z AUTO 17007KT 13/11 A2918 RMK AO2 LTG DSNT SW P0005 T01270109 PWINO
Loading
Personal Weather Stations






























Interactive Weather Map New forecast layout! Learn more

10-Day Weather Forecast

Advertisements
Track Severe Weather on mobile